Time;durP1;ratioP1;P1;durP2;ratioP2;P2;SDS_P1;SDS_P2;PMS_P1;PMS_P2;Temp;Humidity;BMP_temperature;BMP_pressure;BME280_temperature;BME280_humidity;BME280_pressure;Samples;Min_cycle;Max_cycle;Signal;HPM_P1;HPM_P2
2022/02/03 00:04:32;;;;;;;9.93;1.77;;;;;;;2.04;78.17;101853.09;4997929;28;20494;-77
2022/02/03 00:07:03;;;;;;;12.85;1.88;;;;;;;2.05;78.17;101849.44;4978022;28;20038;-77
2022/02/03 00:25:43;;;;;;;8.65;1.95;;;;;;;2.02;78.84;101870.94;4996990;28;20516;-78
2022/02/03 00:33:17;;;;;;;8.30;2.33;;;;;;;2.11;78.44;101872.56;5000587;28;20022;-77
2022/02/03 00:38:21;;;;;;;7.20;1.65;;;;;;;2.18;78.95;101870.09;4998546;28;20053;-77
2022/02/03 00:49:11;;;;;;;9.95;1.77;;;;;;;2.27;78.64;101873.56;4997395;28;20616;-78
2022/02/03 00:51:42;;;;;;;9.57;1.73;;;;;;;2.26;78.69;101869.28;4994951;28;20437;-77
2022/02/03 00:54:10;;;;;;;12.43;2.00;;;;;;;2.24;78.57;101873.91;4995394;28;20036;-77
2022/02/03 00:56:37;;;;;;;8.25;1.52;;;;;;;2.24;78.87;101884.47;4986138;28;20057;-77
2022/02/03 00:59:12;;;;;;;12.90;1.60;;;;;;;2.25;78.79;101881.66;4995400;28;20030;-77
2022/02/03 01:01:41;;;;;;;6.78;1.65;;;;;;;2.25;79.11;101878.19;4973796;28;20030;-77
2022/02/03 01:04:09;;;;;;;11.20;1.58;;;;;;;2.28;78.73;101878.69;4981448;28;20030;-77
2022/02/03 01:06:47;;;;;;;13.98;1.98;;;;;;;2.29;79.02;101874.22;4979371;28;20065;-77
2022/02/03 01:09:16;;;;;;;7.45;1.80;;;;;;;2.30;79.27;101873.22;4983266;28;20625;-77
2022/02/03 01:11:46;;;;;;;8.68;2.13;;;;;;;2.34;78.88;101874.56;4978019;28;20055;-77
2022/02/03 01:14:35;;;;;;;8.13;1.58;;;;;;;2.34;78.75;101879.84;4995014;28;20018;-77
2022/02/03 01:33:46;;;;;;;6.55;1.27;;;;;;;2.62;77.58;101902.28;4998432;28;20033;-77
2022/02/03 01:44:59;;;;;;;9.27;1.50;;;;;;;2.61;77.41;101882.13;4991112;28;20222;-77
2022/02/03 01:52:29;;;;;;;8.13;1.20;;;;;;;2.62;77.53;101885.59;4998536;28;20129;-77
2022/02/03 01:54:58;;;;;;;7.90;1.75;;;;;;;2.64;77.33;101880.97;4998242;28;20038;-77
2022/02/03 01:57:35;;;;;;;10.27;1.90;;;;;;;2.62;77.58;101877.66;4977166;28;20030;-77
2022/02/03 02:00:12;;;;;;;10.20;1.92;;;;;;;2.61;77.95;101884.78;5000520;28;20029;-77
2022/02/03 02:02:49;;;;;;;9.05;3.17;;;;;;;2.60;77.62;101880.47;4999937;28;20087;-77
2022/02/03 02:05:32;;;;;;;8.40;1.48;;;;;;;2.55;77.92;101888.09;4972618;28;20034;-77
2022/02/03 02:08:36;;;;;;;7.40;1.58;;;;;;;2.56;78.03;101881.81;4984809;28;20112;-77
2022/02/03 02:11:31;;;;;;;9.77;1.70;;;;;;;2.59;77.67;101884.13;4987344;28;20420;-77
2022/02/03 02:39:12;;;;;;;10.05;1.90;;;;;;;2.37;77.89;101884.81;4996323;28;20060;-77
2022/02/03 02:44:35;;;;;;;9.27;1.73;;;;;;;2.27;78.22;101874.38;5001227;28;20496;-77
2022/02/03 02:47:07;;;;;;;7.05;1.80;;;;;;;2.28;78.53;101867.28;5001747;28;20057;-77
2022/02/03 02:50:05;;;;;;;14.32;2.10;;;;;;;2.26;78.60;101875.38;4979569;28;20109;-77
2022/02/03 02:52:40;;;;;;;10.68;2.42;;;;;;;2.31;78.35;101875.69;4995437;28;20340;-77
2022/02/03 03:32:04;;;;;;;8.02;2.17;;;;;;;2.19;79.08;101849.78;4996331;28;20442;-76
2022/02/03 03:37:27;;;;;;;7.30;1.65;;;;;;;2.17;79.22;101842.03;4999154;28;20223;-77
2022/02/03 03:39:57;;;;;;;7.85;1.67;;;;;;;2.16;79.04;101840.38;4977535;28;20487;-77
2022/02/03 03:42:32;;;;;;;9.23;1.92;;;;;;;2.15;79.17;101843.16;4981479;28;20147;-77
2022/02/03 03:44:59;;;;;;;;;;;;;;;2.06;79.56;101848.44;5026280;23;20051;-50
2022/02/03 03:47:28;;;;;;;10.63;1.80;;;;;;;2.11;79.65;101850.59;5064558;28;19920;-49
2022/02/03 03:50:01;;;;;;;12.52;2.33;;;;;;;2.11;79.44;101843.47;5060576;28;20051;-48
2022/02/03 03:52:30;;;;;;;11.13;2.03;;;;;;;2.11;79.60;101838.19;5061490;28;20184;-47
2022/02/03 03:55:29;;;;;;;8.13;1.55;;;;;;;2.10;79.61;101839.19;5060628;28;20309;-48
2022/02/03 04:42:07;;;;;;;8.27;1.60;;;;;;;2.11;80.71;101840.84;5045914;28;19986;-50
2022/02/03 04:54:23;;;;;;;7.17;2.00;;;;;;;2.16;80.43;101828.97;5005535;28;20774;-49
2022/02/03 04:57:17;;;;;;;8.95;2.45;;;;;;;2.08;80.55;101811.28;5015876;28;20025;-48
2022/02/03 05:03:06;;;;;;;13.85;2.22;;;;;;;2.04;80.99;101821.34;5053755;28;20170;-47
2022/02/03 05:06:20;;;;;;;8.85;2.15;;;;;;;2.01;81.23;101812.94;5046775;28;20029;-49
2022/02/03 05:12:24;;;;;;;12.98;2.28;;;;;;;1.99;81.59;101809.63;5038034;28;20071;-48
2022/02/03 06:05:14;;;;;;;14.00;1.80;;;;;;;2.29;81.54;101777.19;5051490;28;20359;-48
2022/02/03 06:07:57;;;;;;;12.85;1.80;;;;;;;2.31;81.46;101772.56;5049773;28;20024;-48
2022/02/03 06:13:13;;;;;;;15.23;2.22;;;;;;;2.32;81.75;101770.75;5050122;28;20027;-47
2022/02/03 06:29:32;;;;;;;14.68;3.10;;;;;;;2.36;81.27;101775.53;5043764;28;20351;-48
2022/02/03 06:31:57;;;;;;;14.38;3.70;;;;;;;2.34;81.37;101780.19;5048652;28;20329;-48
2022/02/03 06:34:23;;;;;;;10.15;2.78;;;;;;;2.33;81.51;101782.97;5047477;28;20025;-48
2022/02/03 06:36:51;;;;;;;16.73;3.13;;;;;;;2.35;81.12;101778.38;5048562;28;20033;-48
2022/02/03 06:39:18;;;;;;;11.82;2.60;;;;;;;2.36;81.34;101778.19;5047276;28;20342;-48
2022/02/03 06:41:45;;;;;;;11.82;2.38;;;;;;;2.36;81.34;101772.91;5044133;28;20028;-49
2022/02/03 06:44:13;;;;;;;8.50;2.38;;;;;;;2.37;81.55;101768.44;5051083;28;20017;-49
2022/02/03 06:46:43;;;;;;;9.18;2.78;;;;;;;2.38;81.31;101765.63;5048736;28;20075;-49
2022/02/03 06:49:19;;;;;;;16.38;4.07;;;;;;;2.38;81.27;101759.50;5047863;28;20391;-48
2022/02/03 06:51:55;;;;;;;9.20;2.53;;;;;;;2.36;81.37;101761.50;5050932;28;20020;-49
2022/02/03 06:54:37;;;;;;;10.30;2.65;;;;;;;2.36;81.32;101761.50;5045668;28;20036;-48
2022/02/03 06:57:08;;;;;;;6.78;2.03;;;;;;;2.35;81.23;101763.31;5044335;28;20037;-48
2022/02/03 06:59:55;;;;;;;9.20;3.38;;;;;;;2.36;81.18;101761.50;5048160;28;20028;-48
2022/02/03 07:02:22;;;;;;;12.38;2.17;;;;;;;2.38;81.10;101762.97;5047288;28;20115;-48
2022/02/03 07:04:48;;;;;;;10.38;2.50;;;;;;;2.38;80.99;101762.16;5048751;28;20017;-49
2022/02/03 07:07:16;;;;;;;16.00;2.67;;;;;;;2.37;80.98;101765.78;5047197;28;20032;-48
2022/02/03 07:09:44;;;;;;;11.77;2.40;;;;;;;2.38;80.86;101767.44;5039762;28;20064;-48
2022/02/03 07:12:09;;;;;;;9.10;2.83;;;;;;;2.35;81.04;101775.72;5043136;28;20564;-48
2022/02/03 07:14:36;;;;;;;14.38;2.25;;;;;;;2.36;81.11;101766.78;5048642;28;20029;-49
2022/02/03 07:17:03;;;;;;;12.52;2.72;;;;;;;2.36;81.16;101762.31;5043583;28;20028;-49
2022/02/03 07:19:29;;;;;;;8.18;2.00;;;;;;;2.36;80.95;101761.50;5050019;28;20035;-48
2022/02/03 07:21:54;;;;;;;9.90;2.17;;;;;;;2.39;81.15;101761.16;5049990;28;20734;-49
2022/02/03 07:24:20;;;;;;;11.50;2.25;;;;;;;2.40;80.88;101762.81;5050019;28;20047;-50
2022/02/03 07:26:46;;;;;;;13.32;2.58;;;;;;;2.40;80.91;101753.03;5043258;28;20034;-48
2022/02/03 07:29:12;;;;;;;10.90;2.80;;;;;;;2.38;81.12;101754.22;5045839;28;20079;-48
2022/02/03 07:31:37;;;;;;;12.77;2.78;;;;;;;2.40;80.86;101758.34;5047566;28;20029;-47
2022/02/03 07:34:09;;;;;;;12.07;2.30;;;;;;;2.42;80.98;101750.22;5049745;28;20513;-48
2022/02/03 07:36:36;;;;;;;12.95;2.70;;;;;;;2.43;80.93;101750.06;5045129;28;20075;-49
2022/02/03 07:39:02;;;;;;;12.05;3.08;;;;;;;2.47;81.07;101749.72;5039405;28;20115;-48
2022/02/03 07:41:28;;;;;;;10.07;2.13;;;;;;;2.49;81.20;101745.91;5045612;28;20537;-49
2022/02/03 07:43:54;;;;;;;11.75;1.98;;;;;;;2.51;80.95;101746.56;5047881;28;20104;-49
2022/02/03 07:46:19;;;;;;;12.23;2.60;;;;;;;2.53;81.00;101741.94;5043219;28;20021;-48
2022/02/03 07:48:45;;;;;;;10.75;2.95;;;;;;;2.57;80.93;101740.59;5048727;28;20389;-48
2022/02/03 07:51:10;;;;;;;11.02;2.13;;;;;;;2.59;80.71;101749.19;5049721;28;20112;-48
2022/02/03 07:53:36;;;;;;;7.63;2.03;;;;;;;2.61;80.96;101746.38;5049798;28;20355;-48
2022/02/03 07:56:01;;;;;;;9.05;2.67;;;;;;;2.64;80.92;101738.91;5043057;28;20028;-48
2022/02/03 07:58:27;;;;;;;7.75;1.92;;;;;;;2.67;80.69;101743.03;5047442;28;20025;-48
2022/02/03 08:00:52;;;;;;;8.27;1.95;;;;;;;2.71;80.73;101725.81;5048531;28;20371;-49
2022/02/03 08:03:18;;;;;;;14.48;3.05;;;;;;;2.75;80.64;101728.94;5047864;28;20492;-47
2022/02/03 08:05:48;;;;;;;9.82;2.20;;;;;;;2.76;80.49;101720.00;5047090;28;20028;-49
2022/02/03 08:08:25;;;;;;;10.93;2.50;;;;;;;2.77;80.28;101722.47;5042077;28;20032;-48
2022/02/03 08:10:55;;;;;;;12.77;2.22;;;;;;;2.78;80.28;101720.66;5046022;28;20037;-47
2022/02/03 08:13:33;;;;;;;9.65;2.15;;;;;;;2.79;80.48;101724.94;5044179;28;20578;-48
2022/02/03 08:16:18;;;;;;;14.65;2.65;;;;;;;2.84;80.47;101714.66;5046124;28;20064;-47
2022/02/03 08:18:48;;;;;;;16.17;2.85;;;;;;;2.87;80.38;101711.66;5047175;28;20032;-48
2022/02/03 08:21:16;;;;;;;17.77;3.10;;;;;;;2.94;80.38;101710.81;5044840;28;20037;-48
2022/02/03 08:31:39;;;;;;;13.45;3.20;;;;;;;3.16;80.04;101706.53;5047337;28;20131;-47
2022/02/03 08:34:05;;;;;;;18.20;2.63;;;;;;;3.18;79.59;101715.13;5049504;28;20021;-48
2022/02/03 08:36:35;;;;;;;13.88;2.67;;;;;;;3.19;79.49;101718.59;5039761;28;20021;-48
2022/02/03 08:39:05;;;;;;;13.15;3.30;;;;;;;3.22;80.08;101721.72;5041290;28;20571;-48
2022/02/03 08:41:31;;;;;;;14.77;2.83;;;;;;;3.26;80.03;101717.72;5038424;28;20272;-48
2022/02/03 08:43:56;;;;;;;13.93;2.38;;;;;;;3.30;80.01;101712.91;5043510;28;20081;-48
2022/02/03 08:46:25;;;;;;;11.70;2.42;;;;;;;3.34;79.85;101709.72;5048826;28;20033;-48
2022/02/03 08:48:51;;;;;;;14.77;2.80;;;;;;;3.38;80.27;101710.19;5047400;28;20028;-48
2022/02/03 08:51:17;;;;;;;14.23;2.92;;;;;;;3.44;80.10;101713.97;5047702;28;20140;-48
2022/02/03 08:53:48;;;;;;;9.90;3.17;;;;;;;3.53;79.64;101712.88;5047499;28;20099;-48
2022/02/03 08:56:29;;;;;;;10.10;2.55;;;;;;;3.55;79.80;101711.69;5047909;28;20016;-49
2022/02/03 09:50:07;;;;;;;6.63;2.55;;;;;;;4.65;78.59;101656.13;5050211;28;20039;-49
2022/02/03 09:58:27;;;;;;;12.25;2.58;;;;;;;4.97;78.40;101649.53;5053438;28;20381;-48
2022/02/03 10:06:26;;;;;;;15.82;3.30;;;;;;;5.14;77.96;101650.94;5021872;28;20037;-50
2022/02/03 10:08:54;;;;;;;16.33;2.50;;;;;;;5.20;77.50;101646.69;5051862;28;20513;-48
2022/02/03 10:11:24;;;;;;;10.75;2.35;;;;;;;5.25;77.63;101646.13;5045158;28;20384;-49
2022/02/03 10:13:54;;;;;;;16.70;4.10;;;;;;;5.34;77.50;101637.00;5046192;28;20067;-49
2022/02/03 10:16:24;;;;;;;13.40;2.53;;;;;;;5.41;77.35;101638.72;5049083;28;20584;-48
2022/02/03 10:19:02;;;;;;;12.63;3.15;;;;;;;5.43;76.82;101634.03;5039656;28;20025;-48
2022/02/03 10:21:28;;;;;;;16.27;3.30;;;;;;;5.50;77.28;101625.28;5042455;28;20115;-48
2022/02/03 10:23:55;;;;;;;9.57;2.90;;;;;;;5.55;77.15;101618.34;5050262;28;20111;-48
2022/02/03 10:26:21;;;;;;;17.58;3.45;;;;;;;5.63;77.09;101614.75;5051423;28;20043;-48
2022/02/03 10:28:55;;;;;;;7.30;2.90;;;;;;;5.65;76.42;101610.88;5043141;28;20029;-49
2022/02/03 10:31:26;;;;;;;8.73;2.53;;;;;;;5.67;76.50;101611.50;5044892;28;20021;-48
2022/02/03 10:34:02;;;;;;;12.77;3.03;;;;;;;5.71;76.93;101603.94;5045207;28;20075;-48
2022/02/03 10:36:52;;;;;;;11.90;3.33;;;;;;;5.76;76.40;101613.00;5049483;28;20024;-49
2022/02/03 11:08:23;;;;;;;17.65;3.55;;;;;;;6.27;75.50;101567.41;5061675;28;20035;-77
2022/02/03 11:10:54;;;;;;;14.15;3.05;;;;;;;6.27;75.28;101563.94;5057158;28;20034;-77
2022/02/03 11:13:22;;;;;;;16.48;3.03;;;;;;;6.26;75.51;101565.78;5062389;28;20085;-77
2022/02/03 11:15:50;;;;;;;12.70;3.53;;;;;;;6.27;75.43;101555.94;5073837;28;20112;-77
2022/02/03 11:18:17;;;;;;;17.38;3.42;;;;;;;6.28;75.53;101562.91;5061238;28;20036;-77
2022/02/03 11:20:43;;;;;;;14.63;3.35;;;;;;;6.29;75.34;101554.75;5057635;28;20031;-77
2022/02/03 11:33:45;;;;;;;12.65;3.28;;;;;;;6.46;75.23;101549.03;5064758;28;20028;-77
2022/02/03 12:21:39;;;;;;;10.93;4.57;;;;;;;6.37;77.49;101495.19;5069964;28;20025;-76
2022/02/03 12:26:52;;;;;;;10.05;3.70;;;;;;;6.39;77.27;101484.34;5063506;28;20032;-76
2022/02/03 12:29:25;;;;;;;13.32;3.80;;;;;;;6.38;77.72;101482.69;5067297;28;20130;-77
2022/02/03 12:37:38;;;;;;;6.78;3.83;;;;;;;6.33;78.46;101460.19;5064755;28;20086;-77
2022/02/03 12:40:24;;;;;;;14.55;4.45;;;;;;;6.33;78.57;101456.69;5064744;28;20095;-77
2022/02/03 12:42:55;;;;;;;11.57;3.45;;;;;;;6.33;78.34;101459.34;5061848;28;20035;-77
2022/02/03 12:45:29;;;;;;;8.80;4.32;;;;;;;6.31;79.16;101454.25;5070224;28;20091;-77
2022/02/03 12:48:00;;;;;;;11.25;3.97;;;;;;;6.31;79.10;101448.91;5061885;28;20111;-77
2022/02/03 12:50:31;;;;;;;13.93;4.80;;;;;;;6.30;79.24;101449.94;5068479;28;20043;-77
2022/02/03 12:52:58;;;;;;;12.35;4.38;;;;;;;6.30;79.31;101443.81;5063102;28;20032;-77
2022/02/03 12:55:34;;;;;;;11.80;4.03;;;;;;;6.28;79.78;101441.34;5058056;28;20039;-77
2022/02/03 12:58:13;;;;;;;13.98;4.47;;;;;;;6.31;79.57;101437.44;5060097;28;20028;-77
2022/02/03 13:00:50;;;;;;;12.13;4.72;;;;;;;6.31;79.94;101437.44;5058324;28;20032;-76
2022/02/03 13:03:18;;;;;;;14.98;4.68;;;;;;;6.31;79.92;101430.28;5063902;28;20119;-77
2022/02/03 13:05:52;;;;;;;8.75;3.95;;;;;;;6.28;80.41;101429.84;5062451;28;20172;-77
2022/02/03 13:08:18;;;;;;;11.00;4.93;;;;;;;6.30;80.94;101425.16;5056103;28;20040;-77
2022/02/03 13:10:43;;;;;;;16.67;5.45;;;;;;;6.29;80.83;101419.03;5061216;28;20279;-77
2022/02/03 13:13:23;;;;;;;11.20;4.07;;;;;;;6.28;81.32;101419.19;5064085;28;20531;-77
2022/02/03 13:15:49;;;;;;;14.32;4.97;;;;;;;6.30;81.33;101418.00;5060810;28;20417;-76
2022/02/03 13:18:26;;;;;;;10.52;4.80;;;;;;;6.29;81.19;101412.88;5065020;28;20028;-76
2022/02/03 13:21:19;;;;;;;9.65;4.78;;;;;;;6.28;81.61;101420.06;5072329;28;20127;-76
2022/02/03 13:23:50;;;;;;;14.38;5.18;;;;;;;6.27;81.92;101418.38;5068192;28;20024;-76
2022/02/03 13:26:25;;;;;;;13.90;5.38;;;;;;;6.25;81.65;101409.78;5076813;28;20025;-76
2022/02/03 13:29:09;;;;;;;12.33;4.57;;;;;;;6.22;82.40;101409.38;5060640;28;20555;-76
2022/02/03 13:31:49;;;;;;;13.65;4.90;;;;;;;6.23;82.50;101403.84;5062556;28;21240;-76
2022/02/03 13:34:33;;;;;;;10.55;5.13;;;;;;;6.23;82.78;101397.72;5062695;28;20025;-76
2022/02/03 13:37:13;;;;;;;14.68;5.25;;;;;;;6.22;82.50;101394.22;5064354;28;20024;-76
2022/02/03 13:39:48;;;;;;;14.95;5.30;;;;;;;6.20;83.13;101393.63;5061737;28;20029;-76
2022/02/03 13:42:15;;;;;;;;;;;;;;;6.13;83.68;101394.66;5063926;28;20096;-76
2022/02/03 13:44:42;;;;;;;11.25;4.32;;;;;;;6.19;83.27;101391.97;5063750;28;20301;-76
2022/02/03 13:47:27;;;;;;;15.95;5.47;;;;;;;6.16;82.86;101383.59;5063676;28;20103;-76
2022/02/03 13:50:26;;;;;;;17.00;5.75;;;;;;;6.15;83.13;101388.09;5066642;28;20410;-76
2022/02/03 14:13:21;;;;;;;10.30;5.45;;;;;;;6.19;84.14;101357.38;5072011;28;20105;-76
2022/02/03 14:28:20;;;;;;;10.40;6.10;;;;;;;6.25;84.77;101342.44;5069536;28;20059;-76
2022/02/03 14:30:49;;;;;;;9.52;4.95;;;;;;;6.25;84.68;101345.91;5069807;28;20027;-76
2022/02/03 14:33:25;;;;;;;9.23;5.75;;;;;;;6.27;84.97;101332.41;5061679;28;20115;-76
2022/02/03 14:35:51;;;;;;;11.73;5.97;;;;;;;6.25;85.21;101340.59;5061785;28;20532;-76
2022/02/03 14:38:23;;;;;;;10.23;5.65;;;;;;;6.24;85.02;101338.97;5065463;28;20037;-77
2022/02/03 14:43:32;;;;;;;10.43;5.93;;;;;;;6.23;85.38;101321.38;5063267;28;20021;-77
2022/02/03 14:46:00;;;;;;;12.20;6.13;;;;;;;6.25;85.58;101318.50;5071311;28;20032;-77
2022/02/03 14:48:25;;;;;;;14.05;6.68;;;;;;;6.26;85.28;101317.47;5063112;28;20029;-76
2022/02/03 14:50:54;;;;;;;11.48;6.03;;;;;;;6.26;85.07;101310.31;5065923;28;20031;-76
2022/02/03 14:53:30;;;;;;;11.13;6.63;;;;;;;6.26;85.44;101315.63;5065215;28;20024;-76
2022/02/03 14:58:40;;;;;;;11.88;6.32;;;;;;;6.25;85.46;101313.16;5062170;28;20505;-76
2022/02/03 15:01:05;;;;;;;11.27;6.15;;;;;;;6.24;85.45;101316.84;5063836;28;20032;-76
2022/02/03 15:03:31;;;;;;;10.05;5.72;;;;;;;6.23;85.71;101305.41;5065766;28;20092;-76
2022/02/03 15:06:04;;;;;;;13.63;6.45;;;;;;;6.24;86.06;101306.22;5074605;28;20036;-76
2022/02/03 15:13:46;;;;;;;11.15;6.05;;;;;;;6.25;85.96;101302.53;5062974;28;20746;-77
2022/02/03 15:16:14;;;;;;;11.82;6.53;;;;;;;6.24;86.00;101296.38;5062314;28;20492;-76
2022/02/03 15:18:39;;;;;;;8.75;6.10;;;;;;;6.25;86.16;101298.03;5062200;28;20060;-76
2022/02/03 15:21:06;;;;;;;10.23;6.57;;;;;;;6.26;86.12;101299.66;5060716;28;20028;-77
2022/02/03 15:23:32;;;;;;;13.75;6.65;;;;;;;6.27;86.42;101295.16;5056711;28;20021;-76
2022/02/03 15:25:58;;;;;;;13.35;6.35;;;;;;;6.26;86.26;101302.31;5073811;28;20294;-76
2022/02/03 15:28:24;;;;;;;9.70;5.70;;;;;;;6.26;86.26;101296.19;5079447;28;20521;-76
2022/02/03 15:30:56;;;;;;;10.25;6.68;;;;;;;6.26;86.33;101299.66;5058908;28;20032;-76
2022/02/03 15:33:26;;;;;;;10.55;5.97;;;;;;;6.27;86.45;101290.66;5065770;28;20028;-76
2022/02/03 15:35:58;;;;;;;13.27;6.28;;;;;;;6.28;86.40;101287.00;5061336;28;20028;-76
2022/02/03 15:38:26;;;;;;;9.27;6.10;;;;;;;6.29;86.45;101282.50;5059200;28;20063;-76
2022/02/03 15:40:53;;;;;;;11.80;6.47;;;;;;;6.31;86.32;101277.78;5064817;28;20146;-76
2022/02/03 15:43:28;;;;;;;10.20;6.95;;;;;;;6.29;86.55;101275.31;5062435;28;20024;-76
2022/02/03 15:45:59;;;;;;;11.68;6.95;;;;;;;6.29;86.40;101275.31;5061087;28;20382;-76
2022/02/03 15:56:45;;;;;;;10.38;6.45;;;;;;;6.27;86.82;101269.34;5063939;28;20362;-73
2022/02/03 16:02:38;;;;;;;12.40;7.25;;;;;;;6.28;86.75;101271.03;5065695;28;20058;-73
2022/02/03 16:18:19;;;;;;;11.25;7.00;;;;;;;6.21;87.54;101259.56;5059479;28;20039;-76
2022/02/03 16:20:53;;;;;;;14.75;6.55;;;;;;;6.21;87.45;101254.22;5056172;28;20496;-77
2022/02/03 16:50:56;;;;;;;13.20;8.27;;;;;;;6.25;87.81;101243.97;5065994;28;20066;-76
2022/02/03 16:53:21;;;;;;;14.77;8.85;;;;;;;6.26;88.03;101251.75;5055664;28;20393;-76
2022/02/03 16:55:47;;;;;;;15.57;9.15;;;;;;;6.26;87.84;101241.09;5055262;28;20032;-76
2022/02/03 16:58:13;;;;;;;14.35;9.45;;;;;;;6.27;87.87;101237.44;5059309;28;20017;-76
2022/02/03 17:00:39;;;;;;;18.40;10.13;;;;;;;6.28;87.87;101241.75;5054193;28;20053;-76
2022/02/03 17:03:05;;;;;;;16.80;9.38;;;;;;;6.29;88.23;101231.91;5058488;28;20036;-76
2022/02/03 17:05:34;;;;;;;16.08;10.13;;;;;;;6.29;88.09;101235.41;5056906;28;20406;-76
2022/02/03 17:08:00;;;;;;;14.70;9.43;;;;;;;6.28;88.11;101232.91;5055472;28;20389;-76
2022/02/03 17:10:25;;;;;;;18.02;10.38;;;;;;;6.28;88.16;101236.44;5053918;28;20024;-76
2022/02/03 17:12:51;;;;;;;18.90;10.35;;;;;;;6.29;88.33;101229.25;5062675;28;20036;-76
2022/02/03 17:15:20;;;;;;;20.45;10.55;;;;;;;6.28;88.18;101232.91;5063497;28;20036;-76
2022/02/03 17:17:50;;;;;;;18.42;10.32;;;;;;;6.28;88.82;101230.25;5062907;28;20069;-76
2022/02/03 17:20:16;;;;;;;17.65;11.20;;;;;;;6.27;88.62;101226.78;5061042;28;20276;-76
2022/02/03 17:22:43;;;;;;;14.73;9.75;;;;;;;6.28;88.50;101225.78;5064516;28;20066;-76
2022/02/03 17:28:03;;;;;;;16.50;10.23;;;;;;;6.30;88.65;101221.06;5065824;28;20032;-80
2022/02/03 17:30:29;;;;;;;17.75;10.88;;;;;;;6.31;88.89;101220.03;5065980;28;20066;-76
2022/02/03 18:03:32;;;;;;;22.42;12.05;;;;;;;6.34;88.72;101194.84;5065259;28;20036;-75
2022/02/03 18:09:37;;;;;;;18.88;11.25;;;;;;;6.29;89.20;101200.81;5040404;28;20029;-76
2022/02/03 18:31:29;;;;;;;23.48;11.68;;;;;;;6.31;89.81;101192.63;5059876;28;20029;-76
2022/02/03 18:52:05;;;;;;;28.05;13.57;;;;;;;6.40;90.35;101180.69;5059852;28;20123;-76
2022/02/03 18:55:20;;;;;;;25.77;13.60;;;;;;;6.43;90.54;101179.44;5058776;28;20028;-76
2022/02/03 20:08:42;;;;;;;26.85;13.43;;;;;;;6.55;90.70;101148.50;5067957;28;20032;-75
2022/02/03 20:10:59;;;;;;;25.17;12.60;;;;;;;6.56;90.48;101144.81;5058174;28;20047;-76
2022/02/03 20:13:25;;;;;;;29.63;14.13;;;;;;;6.56;90.64;101139.47;5064197;28;20024;-76
2022/02/03 20:15:52;;;;;;;28.52;13.15;;;;;;;6.56;90.96;101142.13;5064482;28;20202;-76
2022/02/03 20:18:19;;;;;;;24.92;12.60;;;;;;;6.54;90.72;101137.03;5067289;28;20739;-76
2022/02/03 20:20:45;;;;;;;29.13;13.75;;;;;;;6.56;90.45;101136.81;5066091;28;20028;-78
2022/02/03 20:23:19;;;;;;;29.00;13.85;;;;;;;6.56;90.64;101134.16;5068751;28;20066;-78
2022/02/03 20:25:56;;;;;;;29.98;14.55;;;;;;;6.57;90.78;101135.78;5068116;28;20030;-78
2022/02/03 20:28:21;;;;;;;25.75;13.02;;;;;;;6.57;90.85;101136.59;5061966;28;20020;-78
2022/02/03 20:30:47;;;;;;;28.50;12.63;;;;;;;6.58;90.63;101140.09;5066456;28;20090;-78
2022/02/03 20:33:12;;;;;;;26.08;12.88;;;;;;;6.56;91.31;101132.31;5064362;28;20028;-78
2022/02/03 20:35:39;;;;;;;28.13;13.80;;;;;;;6.58;90.50;101132.09;5063943;28;20505;-78
2022/02/03 20:38:05;;;;;;;28.60;12.40;;;;;;;6.58;90.60;101130.25;5063573;28;20032;-78
2022/02/03 20:40:30;;;;;;;33.80;14.85;;;;;;;6.59;90.66;101129.22;5058205;28;20915;-78
2022/02/03 20:42:56;;;;;;;29.48;13.05;;;;;;;6.60;90.70;101130.03;5071057;28;20039;-78
2022/02/03 20:45:22;;;;;;;25.58;12.65;;;;;;;6.59;90.73;101131.06;5065807;28;20032;-78
2022/02/03 20:47:47;;;;;;;30.10;15.48;;;;;;;6.59;90.83;101129.22;5069173;28;20028;-78
2022/02/03 20:50:16;;;;;;;27.30;13.82;;;;;;;6.58;90.39;101122.25;5066542;28;20550;-78
2022/02/03 20:52:42;;;;;;;34.15;15.88;;;;;;;6.57;90.71;101125.94;5064052;28;20029;-78
2022/02/03 20:55:07;;;;;;;31.38;14.45;;;;;;;6.56;90.99;101126.16;5060670;28;20036;-78
2022/02/03 20:57:33;;;;;;;26.80;14.15;;;;;;;6.57;90.72;101119.81;5065579;28;20024;-78
2022/02/03 21:07:30;;;;;;;31.83;15.23;;;;;;;6.55;91.01;101117.38;5063480;28;20021;-78
2022/02/03 21:09:55;;;;;;;28.65;14.85;;;;;;;6.56;91.08;101115.53;5060142;28;20067;-78
2022/02/03 21:12:21;;;;;;;31.10;14.35;;;;;;;6.56;91.46;101119.00;5058310;28;20024;-78
2022/02/03 21:14:53;;;;;;;32.95;15.65;;;;;;;6.57;90.81;101114.50;5067152;28;20017;-79
2022/02/03 21:17:18;;;;;;;31.52;14.50;;;;;;;6.57;91.26;101114.50;5062137;28;20607;-78
2022/02/03 21:19:44;;;;;;;32.22;15.50;;;;;;;6.57;90.85;101103.84;5065850;28;20041;-78
2022/02/03 21:22:09;;;;;;;30.55;14.90;;;;;;;6.57;91.00;101102.00;5058711;28;20025;-78
2022/02/03 21:24:35;;;;;;;35.55;16.05;;;;;;;6.56;90.95;101107.53;5063118;28;20397;-78
2022/02/03 21:27:01;;;;;;;32.20;15.27;;;;;;;6.57;91.08;101096.66;5064128;28;20147;-78
2022/02/03 21:29:27;;;;;;;35.17;16.42;;;;;;;6.58;91.35;101095.63;5062005;28;20072;-78
2022/02/03 21:31:53;;;;;;;34.97;15.77;;;;;;;6.58;91.06;101092.16;5059186;28;20115;-78
2022/02/03 21:34:22;;;;;;;30.98;15.70;;;;;;;6.58;91.33;101089.50;5065413;28;20705;-78
2022/02/03 21:36:53;;;;;;;33.75;16.10;;;;;;;6.59;91.14;101101.78;5064423;28;20158;-78
2022/02/03 21:39:19;;;;;;;32.50;15.18;;;;;;;6.61;91.15;101099.72;5060514;28;20028;-78
2022/02/03 21:41:44;;;;;;;34.63;15.75;;;;;;;6.60;91.15;101101.56;5063604;28;20028;-78
2022/02/03 21:44:14;;;;;;;36.15;16.83;;;;;;;6.59;91.25;101099.94;5059631;28;20514;-78
2022/02/03 21:46:40;;;;;;;37.25;16.65;;;;;;;6.59;90.94;101105.25;5050949;28;20024;-78
2022/02/03 21:49:06;;;;;;;29.35;15.10;;;;;;;6.59;91.33;101115.91;5054384;28;20097;-78
2022/02/03 21:51:41;;;;;;;34.90;16.30;;;;;;;6.60;91.52;101109.56;5059931;28;20024;-78
2022/02/03 21:54:08;;;;;;;37.78;16.38;;;;;;;6.61;91.10;101107.69;5042873;28;20025;-78
2022/02/03 21:56:35;;;;;;;35.97;16.67;;;;;;;6.61;91.39;101115.69;5060846;28;20024;-78
2022/02/03 21:59:07;;;;;;;36.83;17.38;;;;;;;6.61;91.31;101105.03;5060726;28;20028;-78
2022/02/03 22:01:40;;;;;;;33.13;16.15;;;;;;;6.61;91.24;101097.06;5058611;28;20520;-78
2022/02/03 22:04:09;;;;;;;36.30;15.90;;;;;;;6.63;91.36;101097.66;5056473;28;20037;-78
2022/02/03 22:06:35;;;;;;;38.40;15.55;;;;;;;6.63;91.24;101098.47;5060592;28;20032;-78
2022/02/03 22:09:01;;;;;;;34.20;16.92;;;;;;;6.63;91.56;101098.47;5064041;28;20028;-78
2022/02/03 22:11:26;;;;;;;35.75;16.63;;;;;;;6.65;91.23;101095.63;5060493;28;20027;-78
2022/02/03 22:13:53;;;;;;;33.03;14.98;;;;;;;6.65;91.60;101099.09;5063610;28;20028;-78
2022/02/03 22:16:25;;;;;;;37.38;16.25;;;;;;;6.65;91.26;101091.09;5062607;28;20533;-78
2022/02/03 22:18:51;;;;;;;37.17;17.02;;;;;;;6.65;91.55;101090.28;5068274;28;20020;-78
2022/02/03 22:39:35;;;;;;;39.13;17.47;;;;;;;6.58;91.63;101078.84;5073917;28;20124;-78
2022/02/03 22:49:43;;;;;;;34.28;14.75;;;;;;;6.64;91.38;101077.97;5065200;28;20418;-78
2022/02/03 22:52:10;;;;;;;29.95;13.52;;;;;;;6.64;91.40;101083.31;5081073;28;20036;-78
2022/02/03 22:54:36;;;;;;;28.88;13.70;;;;;;;6.64;91.58;101085.97;5063686;28;20033;-78
2022/02/03 22:57:02;;;;;;;26.98;12.40;;;;;;;6.63;91.32;101087.81;5061634;28;20489;-78
2022/02/03 23:02:05;;;;;;;25.25;11.65;;;;;;;6.66;91.60;101090.06;5065199;28;20032;-78
2022/02/03 23:04:31;;;;;;;26.13;11.20;;;;;;;6.66;91.33;101090.06;5064648;28;20086;-77
2022/02/03 23:07:06;;;;;;;22.20;10.18;;;;;;;6.66;91.66;101091.94;5062450;28;20020;-78
2022/02/03 23:09:50;;;;;;;;;;;;;;;6.58;91.76;101089.50;5062933;28;20991;-78
2022/02/03 23:13:10;;;;;;;21.20;9.23;;;;;;;6.59;91.75;101086.63;5056184;28;19930;-78
2022/02/03 23:19:18;;;;;;;21.85;9.52;;;;;;;6.64;91.77;101083.31;5066147;28;20116;-78
2022/02/03 23:21:51;;;;;;;21.20;9.90;;;;;;;6.62;91.69;101085.38;5052393;28;20041;-78
2022/02/03 23:24:19;;;;;;;20.30;9.55;;;;;;;6.62;91.60;101085.38;5064500;28;20600;-78
2022/02/03 23:26:52;;;;;;;20.05;9.15;;;;;;;6.62;91.73;101080.03;5064461;28;20024;-78
2022/02/03 23:29:20;;;;;;;23.05;10.98;;;;;;;6.62;91.77;101072.06;5067140;28;20020;-78